Time;durP1;ratioP1;P1;durP2;ratioP2;P2;SDS_P1;SDS_P2;PMS_P1;PMS_P2;Temp;Humidity;BMP_temperature;BMP_pressure;BME280_temperature;BME280_humidity;BME280_pressure;Samples;Min_cycle;Max_cycle;Signal;HPM_P1;HPM_P2
2023/01/17 00:02:59;;;;;;;0.38;0.10;;;1.00;99.90;;;;;;10215462;23;19997;-78
2023/01/17 00:11:18;;;;;;;0.63;0.30;;;1.20;99.90;;;;;;10240298;23;20019;-79
2023/01/17 00:15:22;;;;;;;0.30;0.20;;;1.10;99.90;;;;;;10214423;23;20005;-78
2023/01/17 01:36:00;;;;;;;1.15;0.25;;;0.60;99.90;;;;;;10239538;23;20019;-79
2023/01/17 01:40:01;;;;;;;0.22;0.22;;;0.70;99.90;;;;;;10239907;23;20543;-80
2023/01/17 01:44:01;;;;;;;0.28;0.28;;;0.70;99.90;;;;;;10212888;23;20009;-79
2023/01/17 01:48:35;;;;;;;0.10;0.10;;;0.70;99.90;;;;;;10213774;23;20447;-80
2023/01/17 01:52:42;;;;;;;0.68;0.30;;;0.80;99.90;;;;;;10214334;23;20116;-79
2023/01/17 01:56:44;;;;;;;1.55;0.75;;;0.60;99.90;;;;;;10243081;23;19993;-79
2023/01/17 02:00:45;;;;;;;0.30;0.10;;;0.60;99.90;;;;;;10215835;23;20013;-80
2023/01/17 02:04:45;;;;;;;0.43;0.40;;;0.50;99.90;;;;;;10243407;23;20008;-80
2023/01/17 02:08:47;;;;;;;0.75;0.47;;;0.50;99.90;;;;;;10216014;23;20012;-78
2023/01/17 02:12:48;;;;;;;0.10;0.10;;;0.50;99.90;;;;;;10216774;23;20384;-78
2023/01/17 02:17:13;;;;;;;0.25;0.22;;;0.40;99.90;;;;;;10242719;23;19997;-79
2023/01/17 02:21:33;;;;;;;0.00;0.00;;;0.60;99.90;;;;;;10214870;23;20013;-79
2023/01/17 02:25:42;;;;;;;0.30;0.22;;;0.70;99.90;;;;;;10242590;23;20001;-80
2023/01/17 02:30:08;;;;;;;1.63;0.40;;;0.70;99.90;;;;;;10215187;23;20009;-78
2023/01/17 02:34:16;;;;;;;0.70;0.30;;;0.70;99.90;;;;;;10214631;23;20009;-80
2023/01/17 02:38:30;;;;;;;0.50;0.20;;;0.70;99.90;;;;;;10214987;23;20001;-79
2023/01/17 02:42:41;;;;;;;1.05;0.38;;;0.90;99.90;;;;;;10214911;23;20009;-79
2023/01/17 02:46:51;;;;;;;0.82;0.30;;;1.00;99.90;;;;;;10215837;23;20344;-80
2023/01/17 02:51:07;;;;;;;0.30;0.30;;;1.10;99.90;;;;;;10215930;23;20013;-79
2023/01/17 02:55:32;;;;;;;0.75;0.30;;;1.20;99.90;;;;;;10215911;23;20040;-79
2023/01/17 03:00:04;;;;;;;0.43;0.32;;;1.30;99.90;;;;;;10216661;23;20009;-80
2023/01/17 03:04:38;;;;;;;0.35;0.35;;;1.50;99.90;;;;;;10204534;23;20036;-79
2023/01/17 03:08:42;;;;;;;0.50;0.47;;;1.50;99.90;;;;;;10216389;23;20005;-79
2023/01/17 03:12:42;;;;;;;8.35;0.82;;;1.60;99.90;;;;;;10241726;23;20001;-79
2023/01/17 03:16:43;;;;;;;5.38;0.55;;;1.50;99.90;;;;;;10217930;23;20016;-80
2023/01/17 03:20:44;;;;;;;1.35;0.70;;;1.40;99.90;;;;;;10217459;23;20164;-80
2023/01/17 03:24:44;;;;;;;2.45;0.40;;;1.50;99.90;;;;;;10216913;23;19997;-80
2023/01/17 03:28:45;;;;;;;1.80;0.50;;;1.40;99.90;;;;;;10215991;23;20013;-80
2023/01/17 03:32:45;;;;;;;0.63;0.40;;;1.20;99.90;;;;;;10215123;23;20001;-80
2023/01/17 03:36:46;;;;;;;0.63;0.30;;;0.90;99.90;;;;;;10215274;23;20092;-80
2023/01/17 03:40:47;;;;;;;0.40;0.40;;;0.80;99.90;;;;;;10214694;23;20009;-79
2023/01/17 03:44:47;;;;;;;1.08;0.80;;;0.90;99.90;;;;;;10240208;23;20001;-80
2023/01/17 03:48:48;;;;;;;0.20;0.20;;;1.00;99.90;;;;;;10214031;23;20100;-79
2023/01/17 03:52:48;;;;;;;0.65;0.40;;;1.10;99.90;;;;;;10216144;23;20076;-79
2023/01/17 03:56:49;;;;;;;1.67;0.63;;;1.30;99.90;;;;;;10215758;23;20005;-79
2023/01/17 04:00:50;;;;;;;0.28;0.20;;;1.40;99.90;;;;;;10242366;23;20012;-80
2023/01/17 04:04:50;;;;;;;0.47;0.47;;;1.10;99.90;;;;;;10214127;23;20012;-80
2023/01/17 04:08:51;;;;;;;0.20;0.20;;;0.80;99.90;;;;;;10241562;23;20001;-78
2023/01/17 04:12:52;;;;;;;0.57;0.40;;;0.50;99.90;;;;;;10242163;23;20060;-78
2023/01/17 04:16:53;;;;;;;0.45;0.40;;;0.40;99.90;;;;;;10215523;23;20439;-80
2023/01/17 04:20:53;;;;;;;0.40;0.40;;;0.20;99.90;;;;;;10210023;23;20013;-80
2023/01/17 04:24:54;;;;;;;1.17;0.68;;;-0.20;99.90;;;;;;10236520;23;19997;-80
2023/01/17 04:28:55;;;;;;;1.02;0.55;;;-0.50;99.90;;;;;;10210097;23;20005;-79
2023/01/17 04:32:56;;;;;;;0.90;0.28;;;-0.60;99.90;;;;;;10210664;23;20036;-80
2023/01/17 04:36:56;;;;;;;0.20;0.20;;;-0.80;99.90;;;;;;10236023;23;20021;-80
2023/01/17 04:40:57;;;;;;;0.98;0.50;;;-0.80;99.90;;;;;;10236130;23;20016;-80
2023/01/17 04:44:57;;;;;;;0.32;0.30;;;-0.70;99.90;;;;;;10210613;23;20015;-79
2023/01/17 04:48:59;;;;;;;1.80;0.50;;;-0.70;99.90;;;;;;10213449;23;20013;-80
2023/01/17 04:53:00;;;;;;;0.55;0.32;;;-0.90;99.90;;;;;;10213204;23;20112;-81
2023/01/17 04:57:00;;;;;;;0.70;0.50;;;-1.20;99.90;;;;;;10213161;23;20009;-80
2023/01/17 05:01:06;;;;;;;2.92;0.65;;;-1.40;99.90;;;;;;10213089;23;20016;-81
2023/01/17 05:05:07;;;;;;;0.95;0.40;;;-1.40;99.90;;;;;;10212338;23;20072;-81
2023/01/17 05:09:07;;;;;;;0.47;0.30;;;-1.40;99.90;;;;;;10213259;23;20136;-81
2023/01/17 05:13:08;;;;;;;1.77;0.40;;;-1.50;99.90;;;;;;10214014;23;20012;-81
2023/01/17 05:17:10;;;;;;;0.47;0.43;;;-1.20;99.90;;;;;;10214051;23;20044;-81
2023/01/17 05:21:10;;;;;;;0.55;0.50;;;-1.10;99.90;;;;;;10214137;23;20137;-81
2023/01/17 05:25:11;;;;;;;3.85;0.55;;;-1.10;99.90;;;;;;10213529;23;20435;-81
2023/01/17 05:29:11;;;;;;;0.50;0.30;;;-1.30;99.90;;;;;;10212857;23;20091;-81
2023/01/17 05:33:11;;;;;;;0.25;0.25;;;-1.50;99.90;;;;;;10213484;23;20474;-81
2023/01/17 05:37:12;;;;;;;0.88;0.45;;;-1.50;99.90;;;;;;10211034;23;20104;-81
2023/01/17 05:41:13;;;;;;;0.85;0.45;;;-1.60;99.90;;;;;;10209991;23;20459;-81
2023/01/17 05:45:15;;;;;;;0.35;0.35;;;-1.80;99.90;;;;;;10210885;23;20068;-81
2023/01/17 05:49:16;;;;;;;1.88;0.40;;;-2.00;99.90;;;;;;10239147;23;20004;-81
2023/01/17 05:53:17;;;;;;;0.65;0.40;;;-2.30;99.90;;;;;;10212048;23;20013;-81
2023/01/17 05:57:17;;;;;;;0.40;0.38;;;-2.40;99.90;;;;;;10207954;23;20013;-80
2023/01/17 06:01:18;;;;;;;0.30;0.20;;;-2.50;99.90;;;;;;10209695;23;20280;-81
2023/01/17 06:05:20;;;;;;;0.73;0.55;;;-2.50;99.90;;;;;;10208337;23;20013;-81
2023/01/17 06:09:20;;;;;;;0.93;0.57;;;-2.70;99.90;;;;;;10209137;23;20270;-81
2023/01/17 06:13:21;;;;;;;0.50;0.50;;;-2.80;99.90;;;;;;10235430;23;20117;-80
2023/01/17 06:17:21;;;;;;;1.08;0.82;;;-2.90;99.90;;;;;;10209557;23;20169;-81
2023/01/17 06:21:22;;;;;;;1.65;1.00;;;-3.10;99.90;;;;;;10209978;23;20061;-81
2023/01/17 06:25:22;;;;;;;5.32;1.70;;;-3.20;99.90;;;;;;10209133;23;20001;-81
2023/01/17 06:29:23;;;;;;;4.10;1.35;;;-3.30;99.90;;;;;;10209317;23;20013;-81
2023/01/17 06:33:23;;;;;;;3.50;1.88;;;-3.20;99.90;;;;;;10210119;23;20009;-81
2023/01/17 06:37:24;;;;;;;4.45;2.10;;;-3.20;99.90;;;;;;10211548;23;20068;-81
2023/01/17 06:41:25;;;;;;;3.08;1.85;;;-3.10;99.90;;;;;;10210396;23;20473;-81
2023/01/17 06:45:25;;;;;;;4.93;2.33;;;-3.10;99.90;;;;;;10236134;23;20003;-81
2023/01/17 06:49:26;;;;;;;3.40;1.67;;;-3.10;99.90;;;;;;10209590;23;20009;-81
2023/01/17 06:53:26;;;;;;;6.53;2.63;;;-2.90;99.90;;;;;;10208620;23;20447;-81
2023/01/17 06:57:27;;;;;;;4.97;2.85;;;-2.70;99.90;;;;;;10236359;23;20012;-79
2023/01/17 07:01:28;;;;;;;3.10;1.88;;;-2.50;99.90;;;;;;10209245;23;20017;-81
2023/01/17 07:05:28;;;;;;;2.17;0.73;;;-2.40;99.90;;;;;;10211753;23;20096;-80
2023/01/17 07:09:29;;;;;;;2.85;0.70;;;-2.70;99.90;;;;;;10239058;23;20029;-81
2023/01/17 07:13:33;;;;;;;1.00;0.70;;;-2.80;99.90;;;;;;10237278;23;20005;-80
2023/01/17 07:17:34;;;;;;;1.40;0.90;;;-3.10;99.90;;;;;;10236542;23;20005;-81
2023/01/17 07:21:34;;;;;;;2.00;1.10;;;-3.30;99.90;;;;;;10208768;23;20013;-81
2023/01/17 07:25:35;;;;;;;2.17;1.40;;;-3.20;99.90;;;;;;10208743;23;20092;-80
2023/01/17 07:29:35;;;;;;;4.72;2.08;;;-3.20;99.90;;;;;;10235531;23;20012;-79
2023/01/17 07:33:36;;;;;;;3.95;1.95;;;-3.30;99.90;;;;;;10209301;23;20009;-81
2023/01/17 07:37:37;;;;;;;4.05;1.90;;;-3.00;99.90;;;;;;10209430;23;20020;-80
2023/01/17 07:41:40;;;;;;;4.65;2.85;;;-2.50;99.90;;;;;;10209002;23;20080;-80
2023/01/17 07:45:42;;;;;;;4.35;2.22;;;-2.10;99.90;;;;;;10209133;23;20100;-80
2023/01/17 07:49:43;;;;;;;2.53;1.52;;;-2.10;99.90;;;;;;10208254;23;20020;-80
2023/01/17 07:53:43;;;;;;;2.95;1.83;;;-2.20;99.90;;;;;;10211375;23;20020;-81
2023/01/17 07:57:48;;;;;;;5.68;2.08;;;-2.30;99.90;;;;;;10208834;23;20471;-81
2023/01/17 08:01:49;;;;;;;5.63;3.30;;;-2.20;99.90;;;;;;10207430;23;20009;-81
2023/01/17 08:05:54;;;;;;;10.35;4.68;;;-1.90;99.90;;;;;;10233559;23;20387;-80
2023/01/17 08:09:55;;;;;;;14.18;5.97;;;-1.70;99.90;;;;;;10206326;23;20009;-80
2023/01/17 08:13:58;;;;;;;10.93;5.13;;;-1.30;99.90;;;;;;10206684;23;20064;-81
2023/01/17 08:17:59;;;;;;;4.43;2.90;;;-1.10;99.90;;;;;;10235106;23;20025;-81
2023/01/17 08:21:59;;;;;;;3.28;1.77;;;-1.20;99.90;;;;;;10236219;23;20349;-81
2023/01/17 08:26:00;;;;;;;5.60;2.85;;;-0.80;99.90;;;;;;10210739;23;20005;-81
2023/01/17 08:30:01;;;;;;;5.95;2.58;;;-0.70;99.90;;;;;;10210104;23;20005;-80
2023/01/17 08:34:02;;;;;;;3.97;2.20;;;-0.60;99.90;;;;;;10209960;23;20009;-81
2023/01/17 08:38:03;;;;;;;2.75;2.10;;;-0.50;99.90;;;;;;10236209;23;20005;-81
2023/01/17 08:42:04;;;;;;;7.82;3.53;;;-0.40;99.90;;;;;;10208923;23;20487;-80
2023/01/17 08:46:05;;;;;;;5.35;2.70;;;-0.30;99.90;;;;;;10235749;23;20001;-81
2023/01/17 08:50:06;;;;;;;3.78;2.25;;;-0.20;99.90;;;;;;10235449;23;20009;-81
2023/01/17 08:54:09;;;;;;;5.47;2.53;;;-0.10;99.90;;;;;;10208410;23;20367;-81
2023/01/17 08:58:10;;;;;;;5.07;2.58;;;0.10;99.90;;;;;;10208963;23;20028;-81
2023/01/17 09:02:14;;;;;;;4.45;1.92;;;0.30;99.90;;;;;;10209071;23;20310;-81
2023/01/17 09:06:16;;;;;;;3.17;2.20;;;0.50;99.90;;;;;;10209721;23;20447;-80
2023/01/17 09:10:16;;;;;;;3.88;2.10;;;0.70;99.90;;;;;;10209809;23;20051;-80
2023/01/17 09:14:17;;;;;;;3.60;2.05;;;0.80;99.90;;;;;;10210039;23;20294;-81
2023/01/17 09:18:17;;;;;;;4.45;2.63;;;1.00;99.90;;;;;;10209056;23;20005;-80
2023/01/17 09:22:18;;;;;;;3.75;2.60;;;1.20;99.90;;;;;;10210194;23;20072;-80
2023/01/17 09:26:28;;;;;;;6.25;3.47;;;1.50;99.90;;;;;;10235310;23;20396;-80
2023/01/17 09:30:28;;;;;;;5.38;2.80;;;1.60;99.90;;;;;;10235009;23;20013;-80
2023/01/17 09:34:29;;;;;;;4.28;2.28;;;2.20;99.90;;;;;;10208972;23;20383;-80
2023/01/17 09:38:31;;;;;;;3.72;1.40;;;2.30;99.90;;;;;;10208120;23;20096;-80
2023/01/17 09:42:39;;;;;;;3.65;2.13;;;2.40;99.90;;;;;;10208719;23;20092;-80
2023/01/17 09:46:44;;;;;;;5.47;2.00;;;2.40;99.90;;;;;;10208210;23;20009;-79
2023/01/17 09:51:20;;;;;;;4.22;2.17;;;2.50;99.90;;;;;;10208348;23;20009;-80
2023/01/17 09:55:21;;;;;;;4.40;2.92;;;2.70;99.90;;;;;;10145511;23;20095;-80
2023/01/17 09:59:42;;;;;;;3.70;2.05;;;2.70;99.90;;;;;;10233213;23;20084;-80
2023/01/17 10:04:06;;;;;;;3.92;2.03;;;2.60;99.90;;;;;;10232966;23;20001;-80
2023/01/17 10:08:37;;;;;;;3.13;2.00;;;2.80;99.90;;;;;;10207320;23;20017;-79
2023/01/17 10:12:41;;;;;;;3.83;2.33;;;2.90;99.90;;;;;;10206534;23;20494;-79
2023/01/17 10:16:57;;;;;;;2.60;1.70;;;2.90;99.90;;;;;;10232227;23;20369;-79
2023/01/17 10:21:10;;;;;;;5.93;2.13;;;2.80;99.90;;;;;;10236705;23;20012;-79
2023/01/17 10:25:21;;;;;;;7.10;1.85;;;2.90;99.90;;;;;;10237887;23;20004;-78
2023/01/17 10:29:27;;;;;;;4.68;1.88;;;3.10;99.90;;;;;;10237345;23;20085;-78
2023/01/17 10:33:38;;;;;;;3.28;1.40;;;3.10;99.90;;;;;;10212729;23;20009;-79
2023/01/17 10:37:41;;;;;;;2.55;1.00;;;2.90;99.90;;;;;;10211394;23;20451;-79
2023/01/17 10:41:45;;;;;;;1.08;0.68;;;2.80;99.90;;;;;;10209506;23;20005;-79
2023/01/17 10:45:54;;;;;;;2.92;1.15;;;2.80;99.90;;;;;;10210741;23;20447;-78
2023/01/17 10:50:01;;;;;;;2.10;1.27;;;2.80;99.90;;;;;;10209610;23;20009;-79
2023/01/17 10:54:20;;;;;;;2.75;1.48;;;2.90;99.90;;;;;;10209555;23;20013;-78
2023/01/17 10:58:20;;;;;;;3.17;1.90;;;3.10;99.90;;;;;;10211018;23;20005;-79
2023/01/17 11:02:31;;;;;;;2.45;1.30;;;3.40;99.90;;;;;;10210366;23;20083;-78
2023/01/17 11:06:32;;;;;;;0.75;0.50;;;3.50;99.90;;;;;;10235923;23;19997;-79
2023/01/17 11:10:36;;;;;;;1.52;1.10;;;3.40;99.90;;;;;;10211308;23;20009;-78
2023/01/17 11:14:37;;;;;;;1.23;0.90;;;3.20;99.90;;;;;;10211112;23;20032;-78
2023/01/17 11:18:38;;;;;;;2.38;1.15;;;3.00;99.90;;;;;;10210962;23;20032;-78
2023/01/17 11:23:01;;;;;;;2.95;1.17;;;2.90;99.90;;;;;;10212181;23;20514;-79
2023/01/17 11:27:04;;;;;;;0.82;0.73;;;3.00;99.90;;;;;;10211467;23;20336;-78
2023/01/17 11:31:24;;;;;;;1.30;0.63;;;3.20;99.90;;;;;;10208402;23;20637;-78
2023/01/17 11:35:28;;;;;;;0.60;0.40;;;3.40;99.90;;;;;;10208720;23;20013;-79
2023/01/17 11:39:28;;;;;;;1.17;0.55;;;3.30;99.90;;;;;;10208256;23;20017;-79
2023/01/17 11:43:29;;;;;;;1.27;0.20;;;3.50;99.90;;;;;;10209065;23;20202;-79
2023/01/17 11:47:29;;;;;;;0.68;0.32;;;3.40;99.90;;;;;;10210604;23;20005;-78
2023/01/17 11:51:33;;;;;;;0.63;0.50;;;3.40;99.90;;;;;;10209761;23;20028;-78
2023/01/17 11:55:33;;;;;;;2.08;0.93;;;3.50;99.90;;;;;;10239305;23;20001;-79
2023/01/17 11:59:36;;;;;;;1.17;0.57;;;3.70;99.90;;;;;;10239041;23;20076;-78
2023/01/17 12:03:51;;;;;;;0.65;0.65;;;4.00;99.90;;;;;;10213765;23;20347;-78
2023/01/17 12:08:04;;;;;;;0.55;0.55;;;4.20;99.90;;;;;;10214119;23;20412;-78
2023/01/17 12:17:19;;;;;;;0.90;0.68;;;4.20;99.90;;;;;;10104533;23;20055;-78
2023/01/17 12:21:46;;;;;;;3.03;0.43;;;4.20;99.90;;;;;;10203205;23;20344;-79
2023/01/17 12:26:30;;;;;;;0.57;0.50;;;4.40;99.90;;;;;;10210137;23;20052;-79
2023/01/17 12:31:04;;;;;;;2.53;0.63;;;4.20;99.90;;;;;;10207861;23;20016;-79
2023/01/17 12:35:19;;;;;;;0.50;0.50;;;4.10;99.90;;;;;;10236529;23;20106;-78
2023/01/17 12:39:29;;;;;;;0.25;0.25;;;4.00;99.90;;;;;;10236591;23;20024;-78
2023/01/17 12:43:32;;;;;;;;;;;4.00;99.90;;;;;;10211209;23;20005;-78
2023/01/17 12:47:39;;;;;;;0.25;0.22;;;4.00;99.90;;;;;;10210313;23;19907;-79
2023/01/17 12:51:43;;;;;;;1.83;1.10;;;4.00;99.90;;;;;;10209091;23;20020;-78
2023/01/17 12:55:49;;;;;;;1.45;0.68;;;4.00;99.90;;;;;;10210620;23;20092;-79
2023/01/17 12:59:53;;;;;;;4.95;2.30;;;4.20;99.90;;;;;;10209198;23;20350;-78
2023/01/17 13:04:04;;;;;;;2.58;0.82;;;3.90;99.90;;;;;;10209640;23;20059;-78
2023/01/17 13:08:20;;;;;;;0.40;0.20;;;3.90;99.90;;;;;;10209727;23;20064;-78
2023/01/17 13:12:23;;;;;;;6.38;1.95;;;3.30;99.90;;;;;;10212526;23;20105;-78
2023/01/17 13:16:38;;;;;;;0.30;0.20;;;3.20;99.90;;;;;;10238119;23;20009;-78
2023/01/17 13:20:55;;;;;;;2.20;0.95;;;3.30;99.90;;;;;;10210179;23;20009;-78
2023/01/17 13:25:07;;;;;;;0.90;0.57;;;3.20;99.90;;;;;;10209739;23;20064;-79
2023/01/17 13:29:31;;;;;;;5.85;0.85;;;3.40;99.90;;;;;;10236644;23;19997;-79
2023/01/17 13:33:44;;;;;;;0.88;0.50;;;3.60;99.90;;;;;;10209725;23;20005;-78
2023/01/17 13:38:02;;;;;;;0.75;0.60;;;3.20;99.90;;;;;;10210216;23;20007;-78
2023/01/17 13:42:29;;;;;;;1.13;0.40;;;3.00;99.90;;;;;;10210122;23;20072;-78
2023/01/17 13:46:31;;;;;;;2.17;0.63;;;3.00;99.90;;;;;;10211362;23;20092;-77
2023/01/17 13:50:40;;;;;;;0.63;0.38;;;2.90;99.90;;;;;;10209259;23;20009;-78
2023/01/17 13:54:47;;;;;;;0.77;0.50;;;2.90;99.90;;;;;;10209029;23;20017;-78
2023/01/17 13:58:48;;;;;;;0.65;0.50;;;2.90;99.90;;;;;;10209067;23;20001;-78
2023/01/17 14:02:52;;;;;;;2.85;0.70;;;3.00;99.90;;;;;;10209194;23;20012;-78
2023/01/17 14:06:55;;;;;;;1.27;0.60;;;2.70;99.90;;;;;;10210326;23;20335;-78
2023/01/17 14:11:04;;;;;;;13.68;0.82;;;2.70;99.90;;;;;;10209107;23;20035;-78
2023/01/17 14:15:20;;;;;;;1.90;1.13;;;2.70;99.90;;;;;;10208478;23;20092;-78
2023/01/17 14:19:26;;;;;;;6.07;2.47;;;2.70;99.90;;;;;;10209563;23;20009;-78
2023/01/17 14:23:33;;;;;;;0.75;0.32;;;2.70;99.90;;;;;;10208985;23;20056;-78
2023/01/17 14:27:35;;;;;;;2.40;0.55;;;2.40;99.90;;;;;;10209273;23;20001;-78
2023/01/17 14:31:36;;;;;;;2.05;0.40;;;2.40;99.90;;;;;;10209759;23;20009;-78
2023/01/17 14:35:54;;;;;;;2.78;0.65;;;2.50;99.90;;;;;;10209456;23;20468;-78
2023/01/17 14:39:55;;;;;;;1.40;0.50;;;2.50;99.90;;;;;;10211385;23;20444;-78
2023/01/17 14:43:58;;;;;;;0.30;0.30;;;2.50;99.90;;;;;;10208895;23;20051;-79
2023/01/17 14:48:03;;;;;;;0.20;0.20;;;2.50;99.90;;;;;;10209278;23;20601;-78
2023/01/17 14:52:05;;;;;;;4.60;0.95;;;2.40;99.90;;;;;;10210092;23;20043;-78
2023/01/17 14:56:14;;;;;;;1.23;0.47;;;2.40;99.90;;;;;;10208497;23;20012;-78
2023/01/17 15:00:18;;;;;;;0.50;0.43;;;2.40;99.90;;;;;;10210610;23;20016;-78
2023/01/17 15:04:27;;;;;;;1.38;0.50;;;2.40;99.90;;;;;;10237158;23;20254;-78
2023/01/17 15:08:33;;;;;;;0.73;0.73;;;2.30;99.90;;;;;;10211307;23;20028;-79
2023/01/17 15:12:35;;;;;;;1.20;0.55;;;2.20;99.90;;;;;;10211370;23;20056;-79
2023/01/17 15:16:37;;;;;;;1.38;0.70;;;2.30;99.90;;;;;;10236970;23;20032;-78
2023/01/17 15:20:39;;;;;;;1.15;0.80;;;2.40;99.90;;;;;;10235920;23;20072;-78
2023/01/17 15:24:43;;;;;;;0.35;0.30;;;2.30;99.90;;;;;;10232616;23;20001;-78
2023/01/17 15:28:44;;;;;;;0.80;0.68;;;2.30;99.90;;;;;;10233878;23;20001;-78
2023/01/17 15:32:50;;;;;;;0.75;0.63;;;2.10;99.90;;;;;;10208775;23;20009;-79
2023/01/17 15:36:51;;;;;;;0.85;0.60;;;2.10;99.90;;;;;;10209052;23;20012;-78
2023/01/17 15:40:51;;;;;;;0.65;0.50;;;2.00;99.90;;;;;;10207275;23;20013;-78
2023/01/17 15:45:00;;;;;;;0.10;0.10;;;2.10;99.90;;;;;;10209708;23;20060;-86
2023/01/17 15:49:15;;;;;;;1.27;0.45;;;2.10;99.90;;;;;;10211241;23;20376;-86
2023/01/17 15:53:37;;;;;;;0.20;0.20;;;2.10;99.90;;;;;;10211612;23;20020;-85
2023/01/17 15:57:38;;;;;;;0.55;0.55;;;2.00;99.90;;;;;;10236709;23;20005;-86
2023/01/17 16:01:39;;;;;;;1.75;0.80;;;2.10;99.90;;;;;;10210206;23;20088;-78
2023/01/17 16:05:42;;;;;;;1.67;0.50;;;2.00;99.90;;;;;;10211440;23;20064;-79
2023/01/17 16:09:43;;;;;;;1.83;0.80;;;2.00;99.90;;;;;;10210941;23;20016;-78
2023/01/17 16:13:47;;;;;;;4.88;0.85;;;2.00;99.90;;;;;;10232966;23;20055;-79
2023/01/17 16:18:09;;;;;;;0.63;0.60;;;1.90;99.90;;;;;;10233149;23;20005;-79
2023/01/17 16:22:11;;;;;;;0.75;0.43;;;1.90;99.90;;;;;;10210521;23;20013;-78
2023/01/17 16:26:12;;;;;;;5.22;1.08;;;1.70;99.90;;;;;;10206948;23;20020;-78
2023/01/17 16:30:16;;;;;;;0.55;0.28;;;1.50;99.90;;;;;;10209568;23;20041;-78
2023/01/17 16:34:16;;;;;;;0.82;0.75;;;1.40;99.90;;;;;;10208324;23;20032;-78
2023/01/17 16:38:18;;;;;;;0.20;0.20;;;1.40;99.90;;;;;;10232121;23;20436;-78
2023/01/17 16:42:19;;;;;;;2.30;0.95;;;1.40;99.90;;;;;;10209653;23;20016;-78
2023/01/17 16:46:19;;;;;;;0.50;0.40;;;1.30;99.90;;;;;;10208991;23;20439;-79
2023/01/17 16:50:22;;;;;;;2.92;0.90;;;1.30;99.90;;;;;;10209672;23;20025;-79
2023/01/17 16:54:23;;;;;;;3.85;0.55;;;1.20;99.90;;;;;;10235022;23;20023;-78
2023/01/17 16:58:24;;;;;;;0.45;0.45;;;1.10;99.90;;;;;;10206874;23;20064;-78
2023/01/17 17:02:24;;;;;;;0.20;0.20;;;1.10;99.90;;;;;;10210266;23;20036;-79
2023/01/17 17:06:25;;;;;;;2.05;0.80;;;1.10;99.90;;;;;;10209735;23;20027;-79
2023/01/17 17:10:26;;;;;;;0.98;0.55;;;1.10;99.90;;;;;;10209103;23;20032;-79
2023/01/17 17:14:27;;;;;;;1.17;0.75;;;1.20;99.90;;;;;;10209605;23;20016;-79
2023/01/17 17:18:27;;;;;;;0.60;0.43;;;1.20;99.90;;;;;;10207667;23;20329;-78
2023/01/17 17:22:28;;;;;;;1.77;0.77;;;1.30;99.90;;;;;;10207215;23;20355;-78
2023/01/17 17:26:34;;;;;;;1.88;1.17;;;1.20;99.90;;;;;;10233610;23;20001;-78
2023/01/17 17:30:35;;;;;;;2.17;1.00;;;1.10;99.90;;;;;;10234409;23;20052;-79
2023/01/17 17:34:37;;;;;;;1.90;0.90;;;1.20;99.90;;;;;;10234651;23;20056;-80
2023/01/17 17:38:49;;;;;;;1.23;0.80;;;1.10;99.90;;;;;;10207586;23;20009;-80
2023/01/17 17:42:49;;;;;;;1.80;1.00;;;1.20;99.90;;;;;;10234875;23;20023;-78
2023/01/17 17:46:50;;;;;;;2.72;1.05;;;1.40;99.90;;;;;;10207537;23;20013;-78
2023/01/17 17:51:00;;;;;;;1.33;0.90;;;1.50;99.90;;;;;;10230666;23;20013;-77
2023/01/17 17:55:01;;;;;;;1.33;0.98;;;1.30;99.90;;;;;;10231054;23;20032;-78
2023/01/17 17:59:03;;;;;;;2.00;1.20;;;1.20;99.90;;;;;;10204557;23;20020;-78
2023/01/17 18:03:04;;;;;;;5.25;1.85;;;1.20;99.90;;;;;;10201675;23;20360;-79
2023/01/17 18:07:04;;;;;;;1.90;0.80;;;1.00;99.90;;;;;;10230329;23;20004;-79
2023/01/17 18:11:10;;;;;;;0.98;0.75;;;1.20;99.90;;;;;;10203105;23;20355;-78
2023/01/17 18:15:10;;;;;;;3.40;1.27;;;1.30;99.90;;;;;;10198013;23;20547;-78
2023/01/17 18:19:14;;;;;;;1.25;0.80;;;1.00;99.90;;;;;;10199686;23;20064;-79
2023/01/17 18:23:15;;;;;;;1.67;1.10;;;0.80;99.90;;;;;;10203593;23;20360;-78
2023/01/17 18:27:15;;;;;;;2.22;1.15;;;0.60;99.90;;;;;;10204211;23;20087;-78
2023/01/17 18:31:16;;;;;;;1.20;0.90;;;1.00;99.90;;;;;;10204506;23;20009;-79
2023/01/17 18:35:16;;;;;;;1.35;0.90;;;1.30;99.90;;;;;;10202655;23;20013;-77
2023/01/17 18:39:20;;;;;;;1.02;0.82;;;0.80;99.90;;;;;;10231086;23;20016;-78
2023/01/17 18:43:21;;;;;;;1.50;0.95;;;0.70;99.90;;;;;;10204256;23;20009;-79
2023/01/17 18:47:21;;;;;;;0.93;0.77;;;0.90;99.90;;;;;;10230475;23;20005;-78
2023/01/17 18:51:22;;;;;;;1.50;0.90;;;0.90;99.90;;;;;;10203895;23;20017;-79
2023/01/17 18:55:23;;;;;;;1.00;0.80;;;0.50;99.90;;;;;;10207233;23;20005;-79
2023/01/17 18:59:24;;;;;;;406.83;117.53;;;0.10;99.90;;;;;;10206345;23;20685;-79
2023/01/17 19:03:30;;;;;;;14.05;5.43;;;0.40;99.90;;;;;;10205912;23;20001;-79
2023/01/17 19:07:32;;;;;;;2.75;1.48;;;0.30;99.90;;;;;;10207062;23;20064;-79
2023/01/17 19:11:33;;;;;;;2.63;1.60;;;-0.10;99.90;;;;;;10205543;23;20079;-79
2023/01/17 19:15:35;;;;;;;3.85;2.47;;;-0.20;99.90;;;;;;10204055;23;20023;-78
2023/01/17 19:19:35;;;;;;;13.27;6.00;;;-0.20;99.90;;;;;;10204633;23;20019;-78
2023/01/17 19:23:36;;;;;;;3.80;1.90;;;0.10;99.90;;;;;;10231862;23;19997;-79
2023/01/17 19:27:36;;;;;;;2.30;1.40;;;0.00;99.90;;;;;;10203519;23;20010;-79
2023/01/17 19:31:41;;;;;;;2.28;1.50;;;-0.30;99.90;;;;;;10203971;23;20046;-79
2023/01/17 19:35:41;;;;;;;2.15;1.00;;;-0.10;99.90;;;;;;10206328;23;20025;-80
2023/01/17 19:39:42;;;;;;;3.00;1.25;;;-0.40;99.90;;;;;;10207236;23;20032;-79
2023/01/17 19:43:43;;;;;;;3.63;1.55;;;-0.10;99.90;;;;;;10208450;23;20012;-80
2023/01/17 19:47:43;;;;;;;6.47;3.00;;;-0.30;99.90;;;;;;10206153;23;20009;-80
2023/01/17 19:51:43;;;;;;;3.40;1.80;;;-0.60;99.90;;;;;;10206647;23;20443;-79
2023/01/17 19:55:44;;;;;;;4.43;1.90;;;-0.70;99.90;;;;;;10206779;23;20055;-80
2023/01/17 19:59:45;;;;;;;4.03;1.90;;;-1.00;99.90;;;;;;10206069;23;20005;-81
2023/01/17 20:03:46;;;;;;;2.53;1.63;;;-1.10;99.90;;;;;;10206677;23;20005;-79
2023/01/17 20:07:46;;;;;;;1.95;1.00;;;-1.20;99.90;;;;;;10205041;23;20009;-79
2023/01/17 20:11:48;;;;;;;1.88;1.40;;;-1.20;99.90;;;;;;10206232;23;20012;-79
2023/01/17 20:15:49;;;;;;;3.22;1.80;;;-1.20;99.90;;;;;;10235224;23;20001;-80
2023/01/17 20:19:49;;;;;;;3.75;1.85;;;-1.00;99.90;;;;;;10208917;23;20011;-80
2023/01/17 20:23:51;;;;;;;3.78;1.90;;;-1.30;99.90;;;;;;10209107;23;20001;-80
2023/01/17 20:27:51;;;;;;;3.13;1.60;;;-1.40;99.90;;;;;;10210606;23;20013;-80
2023/01/17 20:31:52;;;;;;;2.55;1.58;;;-1.50;99.90;;;;;;10236544;23;20100;-79
2023/01/17 20:35:53;;;;;;;4.13;1.58;;;-1.30;99.90;;;;;;10209640;23;20009;-81
2023/01/17 20:39:53;;;;;;;2.55;1.63;;;-1.10;99.90;;;;;;10209096;23;20043;-80
2023/01/17 20:43:56;;;;;;;1.65;1.38;;;-1.00;99.90;;;;;;10209910;23;20041;-77
2023/01/17 20:47:56;;;;;;;3.90;1.92;;;-1.00;99.90;;;;;;10209742;23;20403;-80
2023/01/17 20:51:59;;;;;;;3.53;1.60;;;-0.90;99.90;;;;;;10241346;23;20013;-80
2023/01/17 20:56:00;;;;;;;1.63;1.48;;;-1.10;99.90;;;;;;10212572;23;20027;-79
2023/01/17 21:00:00;;;;;;;4.82;1.70;;;-1.00;99.90;;;;;;10211863;23;20076;-80
2023/01/17 21:04:02;;;;;;;2.72;1.45;;;-1.00;99.90;;;;;;10211932;23;20013;-79
2023/01/17 21:08:02;;;;;;;4.55;1.45;;;-0.90;99.90;;;;;;10211765;23;20063;-80
2023/01/17 21:12:03;;;;;;;5.22;1.88;;;-0.90;99.90;;;;;;10212008;23;20013;-80
2023/01/17 21:16:04;;;;;;;2.50;1.38;;;-0.70;99.90;;;;;;10239191;23;20088;-79
2023/01/17 21:20:06;;;;;;;3.55;1.88;;;-0.50;99.90;;;;;;10211540;23;20443;-80
2023/01/17 21:24:08;;;;;;;1.75;1.50;;;-0.50;99.90;;;;;;10210581;23;20029;-81
2023/01/17 21:28:08;;;;;;;2.38;1.75;;;-0.50;99.90;;;;;;10211429;23;20009;-80
2023/01/17 21:32:09;;;;;;;3.10;1.85;;;-0.60;99.90;;;;;;10212660;23;20020;-80
2023/01/17 21:36:09;;;;;;;2.75;1.67;;;-0.60;99.90;;;;;;10211495;23;20005;-80
2023/01/17 21:40:10;;;;;;;3.00;1.63;;;-0.70;99.90;;;;;;10238404;23;20005;-79
2023/01/17 21:44:19;;;;;;;3.03;1.77;;;-0.80;99.90;;;;;;10210931;23;20028;-81
2023/01/17 21:48:20;;;;;;;3.45;1.98;;;-1.00;99.90;;;;;;10211516;23;20107;-80
2023/01/17 21:52:20;;;;;;;2.47;1.88;;;-1.10;99.90;;;;;;10209340;23;20087;-79
2023/01/17 22:00:43;;;;;;;3.13;2.08;;;-1.40;99.90;;;;;;10236476;23;20020;-79
2023/01/17 22:04:44;;;;;;;3.50;1.98;;;-1.40;99.90;;;;;;10210442;23;20005;-80
2023/01/17 22:08:44;;;;;;;3.50;2.30;;;-1.60;99.90;;;;;;10211821;23;20009;-80
2023/01/17 22:12:45;;;;;;;4.32;2.60;;;-1.90;99.90;;;;;;10211657;23;20008;-80
2023/01/17 22:16:45;;;;;;;6.70;2.70;;;-1.90;99.90;;;;;;10212169;23;20588;-80
2023/01/17 22:20:46;;;;;;;8.63;3.47;;;-2.00;99.90;;;;;;10210737;23;20023;-81
2023/01/17 22:24:46;;;;;;;7.28;3.25;;;-1.90;99.90;;;;;;10211413;23;20005;-79
2023/01/17 22:28:47;;;;;;;4.60;2.67;;;-2.10;99.90;;;;;;10237330;23;20052;-80
2023/01/17 22:32:47;;;;;;;3.78;2.28;;;-2.10;99.90;;;;;;10236507;23;20012;-81
2023/01/17 22:36:48;;;;;;;4.72;2.58;;;-2.20;99.90;;;;;;10210808;23;20007;-80